C35 weather

Reedsburg Municipal Airport
Reedsburg, Wisconsin, United States

Public forecast

Using degrees Fahrenheit for public forecast. Weather courtesy of forecast.io.

Current aviation weather report (METAR) for Reedsburg Municipal Airport

Retrieved 2019/11/18 18:35 UTC (0 seconds ago):

KC35 181835Z AUTO 26004KT 10SM OVC010 00/00 A2975 RMK AO2 T00021005 PWINO

Closest aviation forecast (TAF) to Reedsburg Municipal Airport

Forecast is more than 6 hours old.

Closest forecast is Volk Field, 27.4 nm (50.8 km) NNW. Retrieved 2019/11/18 09:12 UTC (9 hours ago):

TAF KVOK 180900Z 1809/1915 VRB06KT 9999 SCT010 BKN015 620152 QNH2975INS BECMG 1905/1906 VRB06KT 9999 OVC015 620152 620606 QNH2972INS BECMG 1908/1909 VRB06KT 6000 -RASN OVC010 620103 QNH2968INS BECMG 1911/1912 VRB06KT 8000 -SN OVC015 620158 QNH2968INS TX03/1820Z TNM03/1811Z